Union Furnace, OH (43158)

9:55 PM EDT on July 31, 2015 (GMT -0400)
Whitlind Woods | | Change Station
CLOSE
Current Station
Personal Weather Station
Location: Athens, OH
Elevation: 713 ft
Nearby Weather Stations

Elev 713 ft 39.31 °N, 82.16 °W | Updated 10 seconds ago

Overcast
Overcast
70.3 °F
Feels Like 70 °F
N
0.0
Wind Variable Wind from NW
Gusts 0.0 mph

Today
High -- | Low -- °F
--% Chance of Precip.
Yesterday
High -- | Low -- °F
Precip. -- in
6:28 AM 8:43 PM
Waxing Gibbous, 99% visible
Pressure 29.95 in
Visibility 10.0 miles
Clouds Scattered Clouds 10000 ft
Scattered Clouds 12000 ft
Heat Index 70 °F
Dew Point 65 °F
Humidity 82%
Rainfall 0.00 in
Snow Depth Not available.
UV 0 out of 12
Pollen 7.40 out of 12
Air Quality Not available.
Flu Activity Not available.
METAR KUNI 010130Z AUTO 00000KT 10SM SCT100 SCT120 22/17 A2995 RMK AO2 T02200173

More Conditions Fewer Conditions

Pressure 29.95 in
Visibility 10.0 miles
Clouds Scattered Clouds 10000 ft
Scattered Clouds 12000 ft
Heat Index 70 °F
Dew Point 65 °F
Humidity 82%
Rainfall 0.00 in
Snow Depth Not available.
UV 0 out of 12
Pollen 7.40 out of 12
Air Quality Not available.
Flu Activity Not available.
METAR KUNI 010130Z AUTO 00000KT 10SM SCT100 SCT120 22/17 A2995 RMK AO2 T02200173

More Conditions Fewer Conditions

10-Day Weather Forecast

×

Almanac

Astronomy

Jul. 31, 2015 Rise Set
Actual Time
Civil Twilight
Nautical Twilight
Astronomical Twilight
Moon
Length of Visible Light
Length of Day
Tomorrow will be .
, % of the Moon is Illuminated

Today's Extremes

State Highs State Lows

Community

WunderPhotos

Upload Photos

1,842,799 photos uploaded!

WunderBlogs® & News

Nearby

Air Quality

  Air Quality AQ Index Pollutant
Not available.

Snow Depth

Station Depth Elevation

Earthquake Activity

City Distance Mag. Time & Date
Minimum magnitude displayed is 2.5.

Coastal Water Temperatures

Place Temperature

Stations

Nearby Weather Stations

Station Location Temp. Windchill Dew Point Humidity Wind Precip. Elev Updated Type